sensor_id;sensor_type;location;lat;lon;timestamp;temperature;humidity
23156;DHT22;11746;50.876;4.246;2023-01-15T00:01:26;8.50;99.90
23156;DHT22;11746;50.876;4.246;2023-01-15T00:03:54;8.50;99.90
23156;DHT22;11746;50.876;4.246;2023-01-15T00:06:22;8.50;99.90
23156;DHT22;11746;50.876;4.246;2023-01-15T00:08:49;8.50;99.90
23156;DHT22;11746;50.876;4.246;2023-01-15T00:11:16;8.50;99.90
23156;DHT22;11746;50.876;4.246;2023-01-15T00:13:42;8.50;99.90
23156;DHT22;11746;50.876;4.246;2023-01-15T00:16:14;8.60;99.90
23156;DHT22;11746;50.876;4.246;2023-01-15T00:18:40;8.50;99.90
23156;DHT22;11746;50.876;4.246;2023-01-15T00:21:09;8.60;99.90
23156;DHT22;11746;50.876;4.246;2023-01-15T00:23:36;8.50;99.90
23156;DHT22;11746;50.876;4.246;2023-01-15T00:26:27;8.50;99.90
23156;DHT22;11746;50.876;4.246;2023-01-15T00:29:12;8.50;99.90
23156;DHT22;11746;50.876;4.246;2023-01-15T00:31:38;8.50;99.90
23156;DHT22;11746;50.876;4.246;2023-01-15T00:34:04;8.40;99.90
23156;DHT22;11746;50.876;4.246;2023-01-15T00:36:30;8.40;99.90
23156;DHT22;11746;50.876;4.246;2023-01-15T00:38:58;8.40;99.90
23156;DHT22;11746;50.876;4.246;2023-01-15T00:41:25;8.40;99.90
23156;DHT22;11746;50.876;4.246;2023-01-15T00:43:51;8.40;99.90
23156;DHT22;11746;50.876;4.246;2023-01-15T00:46:18;8.40;99.90
23156;DHT22;11746;50.876;4.246;2023-01-15T00:48:44;8.40;99.90
23156;DHT22;11746;50.876;4.246;2023-01-15T00:51:10;8.50;99.90
23156;DHT22;11746;50.876;4.246;2023-01-15T00:53:37;8.40;99.90
23156;DHT22;11746;50.876;4.246;2023-01-15T00:56:03;8.40;99.90
23156;DHT22;11746;50.876;4.246;2023-01-15T00:58:29;8.50;99.90
23156;DHT22;11746;50.876;4.246;2023-01-15T01:00:56;8.50;99.90
23156;DHT22;11746;50.876;4.246;2023-01-15T01:03:23;8.40;99.90
23156;DHT22;11746;50.876;4.246;2023-01-15T01:05:49;8.40;99.90
23156;DHT22;11746;50.876;4.246;2023-01-15T01:08:16;8.40;99.90
23156;DHT22;11746;50.876;4.246;2023-01-15T01:10:42;8.40;99.90
23156;DHT22;11746;50.876;4.246;2023-01-15T01:13:08;8.40;99.90
23156;DHT22;11746;50.876;4.246;2023-01-15T01:15:35;8.40;99.90
23156;DHT22;11746;50.876;4.246;2023-01-15T01:18:02;8.30;99.90
23156;DHT22;11746;50.876;4.246;2023-01-15T01:20:28;8.30;99.90
23156;DHT22;11746;50.876;4.246;2023-01-15T01:22:54;8.30;99.90
23156;DHT22;11746;50.876;4.246;2023-01-15T01:25:21;8.30;99.90
23156;DHT22;11746;50.876;4.246;2023-01-15T01:27:47;8.30;99.90
23156;DHT22;11746;50.876;4.246;2023-01-15T01:30:13;8.30;99.90
23156;DHT22;11746;50.876;4.246;2023-01-15T01:32:43;8.40;99.90
23156;DHT22;11746;50.876;4.246;2023-01-15T01:35:09;8.40;99.90
23156;DHT22;11746;50.876;4.246;2023-01-15T01:37:36;8.30;99.90
23156;DHT22;11746;50.876;4.246;2023-01-15T01:40:04;8.30;99.90
23156;DHT22;11746;50.876;4.246;2023-01-15T01:42:30;8.30;99.90
23156;DHT22;11746;50.876;4.246;2023-01-15T01:45:02;8.30;99.90
23156;DHT22;11746;50.876;4.246;2023-01-15T01:47:30;8.20;99.90
23156;DHT22;11746;50.876;4.246;2023-01-15T01:50:04;8.20;99.90
23156;DHT22;11746;50.876;4.246;2023-01-15T01:52:42;8.10;99.90
23156;DHT22;11746;50.876;4.246;2023-01-15T01:55:09;8.10;99.90
23156;DHT22;11746;50.876;4.246;2023-01-15T01:57:37;8.10;99.90
23156;DHT22;11746;50.876;4.246;2023-01-15T02:00:05;8.10;99.90
23156;DHT22;11746;50.876;4.246;2023-01-15T02:02:36;8.00;99.90
23156;DHT22;11746;50.876;4.246;2023-01-15T02:05:02;8.00;99.90
23156;DHT22;11746;50.876;4.246;2023-01-15T02:07:30;8.00;99.90
23156;DHT22;11746;50.876;4.246;2023-01-15T02:09:58;8.00;99.90
23156;DHT22;11746;50.876;4.246;2023-01-15T02:12:29;8.00;99.90
23156;DHT22;11746;50.876;4.246;2023-01-15T02:15:14;7.90;99.90
23156;DHT22;11746;50.876;4.246;2023-01-15T02:17:51;7.90;99.90
23156;DHT22;11746;50.876;4.246;2023-01-15T02:21:11;7.90;99.90
23156;DHT22;11746;50.876;4.246;2023-01-15T02:32:03;7.70;99.90
23156;DHT22;11746;50.876;4.246;2023-01-15T02:34:34;7.80;99.90
23156;DHT22;11746;50.876;4.246;2023-01-15T02:37:07;7.70;99.90
23156;DHT22;11746;50.876;4.246;2023-01-15T02:39:37;7.70;99.90
23156;DHT22;11746;50.876;4.246;2023-01-15T02:42:07;7.60;99.90
23156;DHT22;11746;50.876;4.246;2023-01-15T02:44:37;7.60;99.90
23156;DHT22;11746;50.876;4.246;2023-01-15T02:47:05;7.60;99.90
23156;DHT22;11746;50.876;4.246;2023-01-15T02:49:33;7.60;99.90
23156;DHT22;11746;50.876;4.246;2023-01-15T02:52:04;7.50;99.90
23156;DHT22;11746;50.876;4.246;2023-01-15T02:54:40;7.50;99.90
23156;DHT22;11746;50.876;4.246;2023-01-15T02:57:09;7.50;99.90
23156;DHT22;11746;50.876;4.246;2023-01-15T02:59:40;7.50;99.90
23156;DHT22;11746;50.876;4.246;2023-01-15T03:02:14;7.50;99.90
23156;DHT22;11746;50.876;4.246;2023-01-15T03:05:09;7.40;99.90
23156;DHT22;11746;50.876;4.246;2023-01-15T03:07:43;7.50;99.90
23156;DHT22;11746;50.876;4.246;2023-01-15T03:10:12;7.50;99.90
23156;DHT22;11746;50.876;4.246;2023-01-15T03:12:56;7.50;99.90
23156;DHT22;11746;50.876;4.246;2023-01-15T03:15:45;7.50;99.90
23156;DHT22;11746;50.876;4.246;2023-01-15T03:18:46;7.50;99.90
23156;DHT22;11746;50.876;4.246;2023-01-15T03:21:19;7.50;99.90
23156;DHT22;11746;50.876;4.246;2023-01-15T03:23:49;7.50;99.90
23156;DHT22;11746;50.876;4.246;2023-01-15T03:26:16;7.40;99.90
23156;DHT22;11746;50.876;4.246;2023-01-15T03:28:42;7.40;99.90
23156;DHT22;11746;50.876;4.246;2023-01-15T03:31:09;7.40;99.90
23156;DHT22;11746;50.876;4.246;2023-01-15T03:33:35;7.40;99.90
23156;DHT22;11746;50.876;4.246;2023-01-15T03:36:02;7.40;99.90
23156;DHT22;11746;50.876;4.246;2023-01-15T03:38:31;7.40;99.90
23156;DHT22;11746;50.876;4.246;2023-01-15T03:44:01;7.40;99.90
23156;DHT22;11746;50.876;4.246;2023-01-15T03:49:06;7.40;99.90
23156;DHT22;11746;50.876;4.246;2023-01-15T03:52:10;7.30;99.90
23156;DHT22;11746;50.876;4.246;2023-01-15T03:54:49;7.20;99.90
23156;DHT22;11746;50.876;4.246;2023-01-15T03:59:57;7.30;99.90
23156;DHT22;11746;50.876;4.246;2023-01-15T04:02:26;7.20;99.90
23156;DHT22;11746;50.876;4.246;2023-01-15T04:04:55;7.20;99.90
23156;DHT22;11746;50.876;4.246;2023-01-15T04:07:24;7.20;99.90
23156;DHT22;11746;50.876;4.246;2023-01-15T04:09:50;7.20;99.90
23156;DHT22;11746;50.876;4.246;2023-01-15T04:12:16;7.10;99.90
23156;DHT22;11746;50.876;4.246;2023-01-15T04:14:42;7.10;99.90
23156;DHT22;11746;50.876;4.246;2023-01-15T04:17:09;7.00;99.90
23156;DHT22;11746;50.876;4.246;2023-01-15T04:19:36;7.00;99.90
23156;DHT22;11746;50.876;4.246;2023-01-15T04:22:03;7.00;99.90
23156;DHT22;11746;50.876;4.246;2023-01-15T04:24:30;7.00;99.90
23156;DHT22;11746;50.876;4.246;2023-01-15T04:26:57;7.00;99.90
23156;DHT22;11746;50.876;4.246;2023-01-15T04:29:23;7.00;99.90
23156;DHT22;11746;50.876;4.246;2023-01-15T04:31:49;7.00;99.90
23156;DHT22;11746;50.876;4.246;2023-01-15T04:34:18;7.00;99.90
23156;DHT22;11746;50.876;4.246;2023-01-15T04:36:45;6.90;99.90
23156;DHT22;11746;50.876;4.246;2023-01-15T04:39:12;6.90;99.90
23156;DHT22;11746;50.876;4.246;2023-01-15T04:41:38;6.90;99.90
23156;DHT22;11746;50.876;4.246;2023-01-15T04:44:22;6.90;99.90
23156;DHT22;11746;50.876;4.246;2023-01-15T04:46:52;6.90;99.90
23156;DHT22;11746;50.876;4.246;2023-01-15T04:49:18;6.90;99.90
23156;DHT22;11746;50.876;4.246;2023-01-15T04:51:45;6.90;99.90
23156;DHT22;11746;50.876;4.246;2023-01-15T04:54:14;6.90;99.90
23156;DHT22;11746;50.876;4.246;2023-01-15T04:56:45;6.90;99.90
23156;DHT22;11746;50.876;4.246;2023-01-15T04:59:16;6.90;99.90
23156;DHT22;11746;50.876;4.246;2023-01-15T05:01:42;6.90;99.90
23156;DHT22;11746;50.876;4.246;2023-01-15T05:04:09;6.80;99.90
23156;DHT22;11746;50.876;4.246;2023-01-15T05:06:35;6.80;99.90
23156;DHT22;11746;50.876;4.246;2023-01-15T05:09:03;6.80;99.90
23156;DHT22;11746;50.876;4.246;2023-01-15T05:11:29;6.80;99.90
23156;DHT22;11746;50.876;4.246;2023-01-15T05:13:55;6.80;99.90
23156;DHT22;11746;50.876;4.246;2023-01-15T05:16:24;6.70;99.90
23156;DHT22;11746;50.876;4.246;2023-01-15T05:18:52;6.70;99.90
23156;DHT22;11746;50.876;4.246;2023-01-15T05:21:28;6.70;99.90
23156;DHT22;11746;50.876;4.246;2023-01-15T05:23:57;6.70;99.90
23156;DHT22;11746;50.876;4.246;2023-01-15T05:26:24;6.70;99.90
23156;DHT22;11746;50.876;4.246;2023-01-15T05:28:56;6.70;99.90
23156;DHT22;11746;50.876;4.246;2023-01-15T05:31:23;6.70;99.90
23156;DHT22;11746;50.876;4.246;2023-01-15T05:33:50;6.70;99.90
23156;DHT22;11746;50.876;4.246;2023-01-15T05:36:20;6.60;99.90
23156;DHT22;11746;50.876;4.246;2023-01-15T05:38:46;6.60;99.90
23156;DHT22;11746;50.876;4.246;2023-01-15T05:41:15;6.70;99.90
23156;DHT22;11746;50.876;4.246;2023-01-15T05:44:02;6.70;99.90
23156;DHT22;11746;50.876;4.246;2023-01-15T05:46:29;6.60;99.90
23156;DHT22;11746;50.876;4.246;2023-01-15T05:49:00;6.60;99.90
23156;DHT22;11746;50.876;4.246;2023-01-15T05:51:26;6.50;99.90
23156;DHT22;11746;50.876;4.246;2023-01-15T05:53:53;6.40;99.90
23156;DHT22;11746;50.876;4.246;2023-01-15T05:56:19;6.30;99.90
23156;DHT22;11746;50.876;4.246;2023-01-15T05:58:46;6.00;99.90
23156;DHT22;11746;50.876;4.246;2023-01-15T06:01:12;5.80;99.90
23156;DHT22;11746;50.876;4.246;2023-01-15T06:03:38;5.70;99.90
23156;DHT22;11746;50.876;4.246;2023-01-15T06:06:06;5.70;99.90
23156;DHT22;11746;50.876;4.246;2023-01-15T06:08:33;5.60;99.90
23156;DHT22;11746;50.876;4.246;2023-01-15T06:10:59;5.70;99.90
23156;DHT22;11746;50.876;4.246;2023-01-15T06:13:24;5.70;99.90
23156;DHT22;11746;50.876;4.246;2023-01-15T06:15:50;5.70;99.90
23156;DHT22;11746;50.876;4.246;2023-01-15T06:18:17;5.70;99.90
23156;DHT22;11746;50.876;4.246;2023-01-15T06:20:44;5.70;99.90
23156;DHT22;11746;50.876;4.246;2023-01-15T06:23:10;5.70;99.90
23156;DHT22;11746;50.876;4.246;2023-01-15T06:25:36;5.70;99.90
23156;DHT22;11746;50.876;4.246;2023-01-15T06:28:04;5.70;99.90
23156;DHT22;11746;50.876;4.246;2023-01-15T06:30:30;5.70;99.90
23156;DHT22;11746;50.876;4.246;2023-01-15T06:32:56;5.70;99.90
23156;DHT22;11746;50.876;4.246;2023-01-15T06:35:22;5.70;99.90
23156;DHT22;11746;50.876;4.246;2023-01-15T06:37:49;5.60;99.90
23156;DHT22;11746;50.876;4.246;2023-01-15T06:40:15;5.70;99.90
23156;DHT22;11746;50.876;4.246;2023-01-15T06:42:41;5.60;99.90
23156;DHT22;11746;50.876;4.246;2023-01-15T06:45:35;5.70;99.90
23156;DHT22;11746;50.876;4.246;2023-01-15T06:48:20;5.70;99.90
23156;DHT22;11746;50.876;4.246;2023-01-15T06:50:46;5.70;99.90
23156;DHT22;11746;50.876;4.246;2023-01-15T06:53:13;5.70;99.90
23156;DHT22;11746;50.876;4.246;2023-01-15T06:55:39;5.60;99.90
23156;DHT22;11746;50.876;4.246;2023-01-15T06:58:06;5.70;99.90
23156;DHT22;11746;50.876;4.246;2023-01-15T07:00:33;5.80;99.90
23156;DHT22;11746;50.876;4.246;2023-01-15T07:02:59;5.80;99.90
23156;DHT22;11746;50.876;4.246;2023-01-15T07:05:25;5.80;99.90
23156;DHT22;11746;50.876;4.246;2023-01-15T07:07:51;5.80;99.90
23156;DHT22;11746;50.876;4.246;2023-01-15T07:10:18;5.80;99.90
23156;DHT22;11746;50.876;4.246;2023-01-15T07:12:44;5.90;99.90
23156;DHT22;11746;50.876;4.246;2023-01-15T07:15:10;5.90;99.90
23156;DHT22;11746;50.876;4.246;2023-01-15T07:17:37;5.90;99.90
23156;DHT22;11746;50.876;4.246;2023-01-15T07:20:04;5.80;99.90
23156;DHT22;11746;50.876;4.246;2023-01-15T07:22:30;5.80;99.90
23156;DHT22;11746;50.876;4.246;2023-01-15T07:24:57;5.80;99.90
23156;DHT22;11746;50.876;4.246;2023-01-15T07:27:23;5.80;99.90
23156;DHT22;11746;50.876;4.246;2023-01-15T07:29:49;5.80;99.90
23156;DHT22;11746;50.876;4.246;2023-01-15T07:32:17;5.80;99.90
23156;DHT22;11746;50.876;4.246;2023-01-15T07:34:42;5.70;99.90
23156;DHT22;11746;50.876;4.246;2023-01-15T07:37:08;5.80;99.90
23156;DHT22;11746;50.876;4.246;2023-01-15T07:39:34;5.80;99.90
23156;DHT22;11746;50.876;4.246;2023-01-15T07:42:01;5.70;99.90
23156;DHT22;11746;50.876;4.246;2023-01-15T07:44:46;5.80;99.90
23156;DHT22;11746;50.876;4.246;2023-01-15T07:47:30;5.70;99.90
23156;DHT22;11746;50.876;4.246;2023-01-15T07:50:18;5.70;99.90
23156;DHT22;11746;50.876;4.246;2023-01-15T07:52:46;5.70;99.90
23156;DHT22;11746;50.876;4.246;2023-01-15T07:55:13;5.70;99.90
23156;DHT22;11746;50.876;4.246;2023-01-15T07:57:40;5.70;99.90
23156;DHT22;11746;50.876;4.246;2023-01-15T08:00:14;5.70;99.90
23156;DHT22;11746;50.876;4.246;2023-01-15T08:02:40;5.70;99.90
23156;DHT22;11746;50.876;4.246;2023-01-15T08:05:08;5.70;99.90
23156;DHT22;11746;50.876;4.246;2023-01-15T08:07:39;5.60;99.90
23156;DHT22;11746;50.876;4.246;2023-01-15T08:10:10;5.60;99.90
23156;DHT22;11746;50.876;4.246;2023-01-15T08:12:37;5.70;99.90
23156;DHT22;11746;50.876;4.246;2023-01-15T08:15:21;5.70;99.90
23156;DHT22;11746;50.876;4.246;2023-01-15T08:17:49;5.60;99.90
23156;DHT22;11746;50.876;4.246;2023-01-15T08:20:18;5.60;99.90
23156;DHT22;11746;50.876;4.246;2023-01-15T08:22:45;5.60;99.90
23156;DHT22;11746;50.876;4.246;2023-01-15T08:25:17;5.60;99.90
23156;DHT22;11746;50.876;4.246;2023-01-15T08:27:45;5.60;99.90
23156;DHT22;11746;50.876;4.246;2023-01-15T08:30:17;5.70;99.90
23156;DHT22;11746;50.876;4.246;2023-01-15T08:32:43;5.70;99.90
23156;DHT22;11746;50.876;4.246;2023-01-15T08:35:11;5.80;99.90
23156;DHT22;11746;50.876;4.246;2023-01-15T08:37:38;5.70;99.90
23156;DHT22;11746;50.876;4.246;2023-01-15T08:40:05;5.80;99.90
23156;DHT22;11746;50.876;4.246;2023-01-15T08:42:32;5.70;99.90
23156;DHT22;11746;50.876;4.246;2023-01-15T08:44:59;5.70;99.90
23156;DHT22;11746;50.876;4.246;2023-01-15T08:47:26;5.70;99.90
23156;DHT22;11746;50.876;4.246;2023-01-15T08:49:51;5.70;99.90
23156;DHT22;11746;50.876;4.246;2023-01-15T08:52:18;5.70;99.90
23156;DHT22;11746;50.876;4.246;2023-01-15T08:54:44;5.70;99.90
23156;DHT22;11746;50.876;4.246;2023-01-15T08:57:11;5.80;99.90
23156;DHT22;11746;50.876;4.246;2023-01-15T08:59:38;5.80;99.90
23156;DHT22;11746;50.876;4.246;2023-01-15T09:02:05;5.80;99.90
23156;DHT22;11746;50.876;4.246;2023-01-15T09:04:31;5.80;99.90
23156;DHT22;11746;50.876;4.246;2023-01-15T09:06:58;5.90;99.90
23156;DHT22;11746;50.876;4.246;2023-01-15T09:09:24;6.00;99.90
23156;DHT22;11746;50.876;4.246;2023-01-15T09:11:50;5.90;99.90
23156;DHT22;11746;50.876;4.246;2023-01-15T09:14:17;5.90;99.90
23156;DHT22;11746;50.876;4.246;2023-01-15T09:16:44;5.90;99.90
23156;DHT22;11746;50.876;4.246;2023-01-15T09:19:10;5.90;99.90
23156;DHT22;11746;50.876;4.246;2023-01-15T09:21:36;5.90;99.90
23156;DHT22;11746;50.876;4.246;2023-01-15T09:24:02;6.00;99.90
23156;DHT22;11746;50.876;4.246;2023-01-15T09:26:33;6.00;99.90
23156;DHT22;11746;50.876;4.246;2023-01-15T09:29:00;6.00;99.90
23156;DHT22;11746;50.876;4.246;2023-01-15T09:31:27;6.00;99.90
23156;DHT22;11746;50.876;4.246;2023-01-15T09:33:54;6.00;99.90
23156;DHT22;11746;50.876;4.246;2023-01-15T09:36:30;6.00;99.90
23156;DHT22;11746;50.876;4.246;2023-01-15T09:38:57;6.00;99.90
23156;DHT22;11746;50.876;4.246;2023-01-15T09:41:26;5.90;99.90
23156;DHT22;11746;50.876;4.246;2023-01-15T09:44:34;5.90;99.90
23156;DHT22;11746;50.876;4.246;2023-01-15T09:47:10;5.90;99.90
23156;DHT22;11746;50.876;4.246;2023-01-15T09:55:18;5.80;99.90
23156;DHT22;11746;50.876;4.246;2023-01-15T09:57:49;5.80;99.90
23156;DHT22;11746;50.876;4.246;2023-01-15T10:00:23;5.80;99.90
23156;DHT22;11746;50.876;4.246;2023-01-15T10:03:06;5.80;99.90
23156;DHT22;11746;50.876;4.246;2023-01-15T10:05:45;5.80;99.90
23156;DHT22;11746;50.876;4.246;2023-01-15T10:08:20;5.90;99.90
23156;DHT22;11746;50.876;4.246;2023-01-15T10:10:54;5.90;99.90
23156;DHT22;11746;50.876;4.246;2023-01-15T10:13:43;5.80;99.90
23156;DHT22;11746;50.876;4.246;2023-01-15T10:16:17;5.80;99.90
23156;DHT22;11746;50.876;4.246;2023-01-15T10:18:44;5.80;99.90
23156;DHT22;11746;50.876;4.246;2023-01-15T10:21:40;5.80;99.90
23156;DHT22;11746;50.876;4.246;2023-01-15T10:24:44;5.80;99.90
23156;DHT22;11746;50.876;4.246;2023-01-15T10:27:19;5.80;99.90
23156;DHT22;11746;50.876;4.246;2023-01-15T10:29:53;5.70;99.90
23156;DHT22;11746;50.876;4.246;2023-01-15T10:38:13;5.90;99.90
23156;DHT22;11746;50.876;4.246;2023-01-15T10:46:14;6.10;99.90
23156;DHT22;11746;50.876;4.246;2023-01-15T10:48:47;6.20;99.90
23156;DHT22;11746;50.876;4.246;2023-01-15T10:51:42;6.30;99.90
23156;DHT22;11746;50.876;4.246;2023-01-15T10:54:27;6.30;99.90
23156;DHT22;11746;50.876;4.246;2023-01-15T10:56:57;6.60;99.90
23156;DHT22;11746;50.876;4.246;2023-01-15T11:05:01;6.50;99.90
23156;DHT22;11746;50.876;4.246;2023-01-15T11:07:38;6.50;99.90
23156;DHT22;11746;50.876;4.246;2023-01-15T11:10:07;6.50;99.90
23156;DHT22;11746;50.876;4.246;2023-01-15T11:12:38;6.50;99.90
23156;DHT22;11746;50.876;4.246;2023-01-15T11:15:25;6.60;99.90
23156;DHT22;11746;50.876;4.246;2023-01-15T11:18:27;6.70;99.90
23156;DHT22;11746;50.876;4.246;2023-01-15T11:21:17;6.60;99.90
23156;DHT22;11746;50.876;4.246;2023-01-15T11:23:45;6.60;99.90
23156;DHT22;11746;50.876;4.246;2023-01-15T11:26:27;6.60;99.90
23156;DHT22;11746;50.876;4.246;2023-01-15T11:28:55;6.60;99.90
23156;DHT22;11746;50.876;4.246;2023-01-15T11:31:23;6.70;99.90
23156;DHT22;11746;50.876;4.246;2023-01-15T11:34:02;6.80;99.90
23156;DHT22;11746;50.876;4.246;2023-01-15T11:36:30;6.90;99.90
23156;DHT22;11746;50.876;4.246;2023-01-15T11:38:56;7.10;99.90
23156;DHT22;11746;50.876;4.246;2023-01-15T11:41:28;7.10;99.90
23156;DHT22;11746;50.876;4.246;2023-01-15T11:44:13;7.20;99.90
23156;DHT22;11746;50.876;4.246;2023-01-15T11:46:58;7.30;99.90
23156;DHT22;11746;50.876;4.246;2023-01-15T11:49:53;7.40;99.90
23156;DHT22;11746;50.876;4.246;2023-01-15T11:52:50;7.40;99.90
23156;DHT22;11746;50.876;4.246;2023-01-15T11:55:20;7.30;99.90
23156;DHT22;11746;50.876;4.246;2023-01-15T11:57:47;7.30;99.90
23156;DHT22;11746;50.876;4.246;2023-01-15T12:00:23;7.20;99.90
23156;DHT22;11746;50.876;4.246;2023-01-15T12:02:53;7.10;99.90
23156;DHT22;11746;50.876;4.246;2023-01-15T12:05:23;7.10;99.90
23156;DHT22;11746;50.876;4.246;2023-01-15T12:07:54;7.00;99.90
23156;DHT22;11746;50.876;4.246;2023-01-15T12:10:36;7.00;99.90
23156;DHT22;11746;50.876;4.246;2023-01-15T12:13:57;7.00;99.90
23156;DHT22;11746;50.876;4.246;2023-01-15T12:19:22;7.10;99.90
23156;DHT22;11746;50.876;4.246;2023-01-15T12:22:07;7.10;99.90
23156;DHT22;11746;50.876;4.246;2023-01-15T12:27:38;7.10;99.90
23156;DHT22;11746;50.876;4.246;2023-01-15T12:30:23;7.00;99.90
23156;DHT22;11746;50.876;4.246;2023-01-15T12:33:16;7.00;99.90
23156;DHT22;11746;50.876;4.246;2023-01-15T12:35:59;7.00;99.90
23156;DHT22;11746;50.876;4.246;2023-01-15T12:41:13;7.10;99.90
23156;DHT22;11746;50.876;4.246;2023-01-15T12:43:42;7.10;99.90
23156;DHT22;11746;50.876;4.246;2023-01-15T12:46:30;7.10;99.90
23156;DHT22;11746;50.876;4.246;2023-01-15T12:49:10;7.20;99.90
23156;DHT22;11746;50.876;4.246;2023-01-15T12:52:12;7.20;99.90
23156;DHT22;11746;50.876;4.246;2023-01-15T12:55:09;7.30;99.90
23156;DHT22;11746;50.876;4.246;2023-01-15T12:57:43;7.30;99.90
23156;DHT22;11746;50.876;4.246;2023-01-15T13:00:59;7.40;99.90
23156;DHT22;11746;50.876;4.246;2023-01-15T13:03:22;7.40;99.90
23156;DHT22;11746;50.876;4.246;2023-01-15T13:05:56;7.40;99.90
23156;DHT22;11746;50.876;4.246;2023-01-15T13:08:57;7.50;99.90
23156;DHT22;11746;50.876;4.246;2023-01-15T13:11:26;7.50;99.90
23156;DHT22;11746;50.876;4.246;2023-01-15T13:13:52;7.40;99.90
23156;DHT22;11746;50.876;4.246;2023-01-15T13:19:51;7.40;99.90
23156;DHT22;11746;50.876;4.246;2023-01-15T13:22:26;7.40;99.90
23156;DHT22;11746;50.876;4.246;2023-01-15T13:25:33;7.50;99.90
23156;DHT22;11746;50.876;4.246;2023-01-15T13:28:12;7.40;99.90
23156;DHT22;11746;50.876;4.246;2023-01-15T13:34:12;7.40;99.90
23156;DHT22;11746;50.876;4.246;2023-01-15T13:36:32;7.40;99.90
23156;DHT22;11746;50.876;4.246;2023-01-15T13:39:03;7.20;99.90
23156;DHT22;11746;50.876;4.246;2023-01-15T13:41:32;7.10;99.90
23156;DHT22;11746;50.876;4.246;2023-01-15T13:46:46;6.80;99.90
23156;DHT22;11746;50.876;4.246;2023-01-15T13:49:22;6.70;99.90
23156;DHT22;11746;50.876;4.246;2023-01-15T13:51:53;6.70;99.90
23156;DHT22;11746;50.876;4.246;2023-01-15T13:54:22;6.70;99.90
23156;DHT22;11746;50.876;4.246;2023-01-15T13:56:50;6.70;99.90
23156;DHT22;11746;50.876;4.246;2023-01-15T14:02:34;6.70;99.90
23156;DHT22;11746;50.876;4.246;2023-01-15T14:05:10;6.60;99.90
23156;DHT22;11746;50.876;4.246;2023-01-15T14:07:37;6.60;99.90
23156;DHT22;11746;50.876;4.246;2023-01-15T14:18:11;6.40;99.90
23156;DHT22;11746;50.876;4.246;2023-01-15T14:31:27;6.50;99.90
23156;DHT22;11746;50.876;4.246;2023-01-15T14:34:21;6.60;99.90
23156;DHT22;11746;50.876;4.246;2023-01-15T14:36:53;6.60;99.90
23156;DHT22;11746;50.876;4.246;2023-01-15T14:39:58;6.70;99.90
23156;DHT22;11746;50.876;4.246;2023-01-15T14:47:54;6.70;99.90
23156;DHT22;11746;50.876;4.246;2023-01-15T14:58:45;6.40;99.90
23156;DHT22;11746;50.876;4.246;2023-01-15T15:03:47;6.40;99.90
23156;DHT22;11746;50.876;4.246;2023-01-15T15:06:15;6.40;99.90
23156;DHT22;11746;50.876;4.246;2023-01-15T15:08:42;6.40;99.90
23156;DHT22;11746;50.876;4.246;2023-01-15T15:11:22;6.50;99.90
23156;DHT22;11746;50.876;4.246;2023-01-15T15:14:10;6.40;99.90
23156;DHT22;11746;50.876;4.246;2023-01-15T15:16:46;6.50;99.90
23156;DHT22;11746;50.876;4.246;2023-01-15T15:19:27;6.40;99.90
23156;DHT22;11746;50.876;4.246;2023-01-15T15:21:57;6.40;99.90
23156;DHT22;11746;50.876;4.246;2023-01-15T15:24:35;6.40;99.90
23156;DHT22;11746;50.876;4.246;2023-01-15T15:27:19;6.40;99.90
23156;DHT22;11746;50.876;4.246;2023-01-15T15:29:46;6.40;99.90
23156;DHT22;11746;50.876;4.246;2023-01-15T15:32:18;6.30;99.90
23156;DHT22;11746;50.876;4.246;2023-01-15T15:34:48;6.30;99.90
23156;DHT22;11746;50.876;4.246;2023-01-15T15:37:20;6.20;99.90
23156;DHT22;11746;50.876;4.246;2023-01-15T15:40:35;6.20;99.90
23156;DHT22;11746;50.876;4.246;2023-01-15T15:45:51;6.10;99.90
23156;DHT22;11746;50.876;4.246;2023-01-15T15:48:35;6.10;99.90
23156;DHT22;11746;50.876;4.246;2023-01-15T15:54:26;6.00;99.90
23156;DHT22;11746;50.876;4.246;2023-01-15T15:57:13;5.90;99.90
23156;DHT22;11746;50.876;4.246;2023-01-15T15:59:46;5.90;99.90
23156;DHT22;11746;50.876;4.246;2023-01-15T16:02:30;5.80;99.90
23156;DHT22;11746;50.876;4.246;2023-01-15T16:05:20;5.80;99.90
23156;DHT22;11746;50.876;4.246;2023-01-15T16:07:47;5.80;99.90
23156;DHT22;11746;50.876;4.246;2023-01-15T16:12:55;5.70;99.90
23156;DHT22;11746;50.876;4.246;2023-01-15T16:15:32;5.60;99.90
23156;DHT22;11746;50.876;4.246;2023-01-15T16:18:00;5.50;99.90
23156;DHT22;11746;50.876;4.246;2023-01-15T16:20:27;5.40;99.90
23156;DHT22;11746;50.876;4.246;2023-01-15T16:25:32;5.50;99.90
23156;DHT22;11746;50.876;4.246;2023-01-15T16:28:00;5.50;99.90
23156;DHT22;11746;50.876;4.246;2023-01-15T16:30:28;5.50;99.90
23156;DHT22;11746;50.876;4.246;2023-01-15T16:33:04;5.50;99.90
23156;DHT22;11746;50.876;4.246;2023-01-15T16:35:33;5.50;99.90
23156;DHT22;11746;50.876;4.246;2023-01-15T16:38:02;5.50;99.90
23156;DHT22;11746;50.876;4.246;2023-01-15T16:40:38;5.50;99.90
23156;DHT22;11746;50.876;4.246;2023-01-15T16:45:35;5.40;99.90
23156;DHT22;11746;50.876;4.246;2023-01-15T16:48:08;5.40;99.90
23156;DHT22;11746;50.876;4.246;2023-01-15T16:50:39;5.40;99.90
23156;DHT22;11746;50.876;4.246;2023-01-15T16:55:53;5.30;99.90
23156;DHT22;11746;50.876;4.246;2023-01-15T16:58:37;5.20;99.90
23156;DHT22;11746;50.876;4.246;2023-01-15T17:01:39;5.10;99.90
23156;DHT22;11746;50.876;4.246;2023-01-15T17:04:28;5.10;99.90
23156;DHT22;11746;50.876;4.246;2023-01-15T17:06:56;5.10;99.90
23156;DHT22;11746;50.876;4.246;2023-01-15T17:09:23;5.10;99.90
23156;DHT22;11746;50.876;4.246;2023-01-15T17:11:51;5.10;99.90
23156;DHT22;11746;50.876;4.246;2023-01-15T17:14:23;5.10;99.90
23156;DHT22;11746;50.876;4.246;2023-01-15T17:17:20;5.00;99.90
23156;DHT22;11746;50.876;4.246;2023-01-15T17:19:49;5.10;99.90
23156;DHT22;11746;50.876;4.246;2023-01-15T17:22:27;5.10;99.90
23156;DHT22;11746;50.876;4.246;2023-01-15T17:24:55;5.20;99.90
23156;DHT22;11746;50.876;4.246;2023-01-15T17:27:22;5.20;99.90
23156;DHT22;11746;50.876;4.246;2023-01-15T17:29:48;5.20;99.90
23156;DHT22;11746;50.876;4.246;2023-01-15T17:32:26;5.30;99.90
23156;DHT22;11746;50.876;4.246;2023-01-15T17:34:53;5.30;99.90
23156;DHT22;11746;50.876;4.246;2023-01-15T17:37:19;5.40;99.90
23156;DHT22;11746;50.876;4.246;2023-01-15T17:39:46;5.40;99.90
23156;DHT22;11746;50.876;4.246;2023-01-15T17:42:17;5.50;99.90
23156;DHT22;11746;50.876;4.246;2023-01-15T17:44:44;5.50;99.90
23156;DHT22;11746;50.876;4.246;2023-01-15T17:47:11;5.50;99.90
23156;DHT22;11746;50.876;4.246;2023-01-15T17:49:38;5.60;99.90
23156;DHT22;11746;50.876;4.246;2023-01-15T17:52:06;5.70;99.90
23156;DHT22;11746;50.876;4.246;2023-01-15T17:54:33;5.80;99.90
23156;DHT22;11746;50.876;4.246;2023-01-15T17:57:17;5.80;99.90
23156;DHT22;11746;50.876;4.246;2023-01-15T18:00:02;5.90;99.90
23156;DHT22;11746;50.876;4.246;2023-01-15T18:02:46;6.00;99.90
23156;DHT22;11746;50.876;4.246;2023-01-15T18:05:30;6.00;99.90
23156;DHT22;11746;50.876;4.246;2023-01-15T18:08:01;6.10;99.90
23156;DHT22;11746;50.876;4.246;2023-01-15T18:10:29;6.10;99.90